Weather observations for the past three days for
Madison Municipal Airport
Metric (Imperial)
Date Time (cdt) Wind (kph) Vis. (km) Weather Sky Cond. Temperature (ºC) Relative Humidity Wind Chill (°C) Heat Index (°C) Pressure Precipitation (cm)
Air Dwpt 6 hour altimeter (cm) sea level (mb) 1 hr 3 hr 6 hr
Max. Min.
09 06:35 Calm 16.09 Unknown Precip FEW042 SCT070 BKN085 8 5 82% 75.54 0.0
09 06:15 NW 7 16.09 Overcast FEW075 OVC100 8 4 76% 7 75.54 0.0
09 05:55 N 6 16.09 Overcast FEW075 BKN095 OVC110 8 3 71% 75.57 0.0
09 05:35 N 13 16.09 Overcast BKN085 OVC110 7 2 71% 5 75.54 0.0
09 05:15 N 15 16.09 Mostly Cloudy BKN110 8 1 62% 6 75.54 0.0
09 04:55 N 20 16.09 Fair CLR 9 1 58% 6 75.54 0.0
09 04:35 NW 24 16.09 Fair CLR 9 -1 50% 6 75.51 0.0
09 04:15 NW 24 G 37 16.09 Fair CLR 11 -2 41% 75.46 0.0
09 03:55 NW 33 G 50 16.09 Fair and Breezy CLR 9 -2 46% 5 75.46 0.0
09 03:35 SW 22 16.09 Fair CLR 9 -2 46% 6 75.31 0.0
09 03:15 SW 22 G 31 16.09 Fair CLR 9 -2 46% 6 75.31 0.0
09 02:55 SW 22 16.09 Fair CLR 9 -2 46% 6 75.31 0.0
09 02:35 SW 20 16.09 Fair CLR 10 -2 43% 8 75.31 0.0
09 02:15 SW 19 16.09 Fair CLR 10 -2 43% 8 75.31 0.0
09 01:55 SW 17 16.09 Fair CLR 9 -2 46% 7 75.34 0.0
09 01:35 SW 15 16.09 Fair CLR 9 -1 50% 7 75.36 0.0
09 01:15 SW 15 16.09 Fair CLR 9 -1 50% 7 75.36 0.0
09 00:55 SW 15 16.09 Fair CLR 9 -1 50% 7 75.39 0.0
09 00:35 SW 13 16.09 Fair CLR 10 -1 47% 8 75.41 0.0
09 00:15 SW 13 16.09 Fair CLR 10 -1 47% 8 75.44 0.0
08 23:55 SW 11 16.09 Fair CLR 11 0 47% 75.46 0.0
08 23:35 SW 11 16.09 Fair CLR 11 0 47% 75.46 0.0
08 23:15 SW 9 16.09 Fair CLR 11 -1 44% 75.49 0.0
08 22:55 W 6 16.09 Fair CLR 11 -1 44% 75.49 0.0
08 22:35 W 9 16.09 Fair CLR 12 -1 41% 75.51 0.0
08 22:15 W 9 16.09 Fair CLR 13 -2 36% 75.51 0.0
08 21:55 W 11 16.09 Fair CLR 12 -2 38% 75.51 0.0
08 21:35 NW 13 16.09 Fair CLR 12 -2 38% 75.51 0.0
08 21:15 NW 11 16.09 Fair CLR 12 -2 38% 75.49 0.0
08 20:55 NW 19 16.09 Fair CLR 14 -2 33% 75.49 0.0
08 20:35 N 20 16.09 Fair CLR 15 -2 31% 75.46 0.0
08 20:15 N 24 16.09 Fair CLR 17 -2 27% 75.46 0.0
08 19:55 N 24 G 37 16.09 Fair CLR 18 -2 26% 75.46 0.0
08 19:35 N 31 G 43 16.09 Fair CLR 18 -3 24% 75.44 0.0
08 19:15 N 35 G 46 16.09 Fair and Breezy CLR 19 -2 24% 75.41 0.0
08 18:55 N 37 G 46 16.09 Fair and Breezy CLR 19 -2 24% 75.41 0.0
08 18:35 N 35 G 48 16.09 Fair and Breezy CLR 20 -1 24% 75.39 0.0
08 18:15 N 41 16.09 Fair and Breezy CLR 20 0 26% 75.39 0.0
08 17:55 N 33 G 43 16.09 A Few Clouds and Breezy FEW095 21 1 27% 75.36 0.0
08 17:35 N 33 16.09 Partly Cloudy and Breezy SCT095 21 2 29% 75.36 0.0
08 17:15 N 26 G 41 16.09 Mostly Cloudy BKN100 BKN120 21 2 29% 75.34 0.0
08 16:55 NW 28 16.09 Partly Cloudy FEW100 SCT120 21 2 29% 75.31 0.0
08 16:35 NW 37 16.09 A Few Clouds and Breezy FEW120 22 1 25% 75.31 0.0
08 16:15 NW 30 G 44 16.09 A Few Clouds FEW100 FEW120 22 2 27% 75.34 0.0
08 15:55 W 19 G 31 16.09 Fair CLR 21 1 27% 75.34 0.0
08 15:35 NW 24 G 41 16.09 Fair CLR 22 2 27% 75.36 0.0
08 15:15 W 24 G 43 16.09 A Few Clouds FEW095 22 1 25% 75.36 0.0
08 14:55 NW 24 G 43 16.09 Partly Cloudy SCT095 22 1 25% 75.39 0.0
08 14:35 W 20 G 43 16.09 A Few Clouds FEW100 22 1 25% 75.39 0.0
08 14:15 W 22 G 39 16.09 Fair CLR 22 2 27% 75.39 0.0
08 13:55 W 26 G 37 16.09 Fair CLR 22 1 25% 75.41 0.0
08 13:35 NW 26 G 37 16.09 Fair CLR 21 1 27% 75.44 0.0
08 13:15 W 20 G 31 16.09 Fair CLR 21 1 27% 75.44 0.0
08 12:55 W 26 16.09 Fair CLR 21 2 29% 75.46 0.0
08 12:35 W 26 G 39 16.09 Fair CLR 21 0 25% 75.51 0.0
08 12:15 W 19 G 30 16.09 Fair CLR 20 0 26% 75.51 0.0
08 11:55 W 19 G 30 16.09 Fair CLR 20 1 28% 75.51 0.0
08 11:35 SW 20 16.09 Fair CLR 20 0 26% 75.51 0.0
08 11:15 SW 20 G 30 16.09 Fair CLR 19 0 28% 75.54 0.0
08 10:55 SW 15 16.09 Fair CLR 19 -2 24% 75.54 0.0
08 10:35 W 20 16.09 Fair CLR 18 -2 26% 75.57 0.0
08 10:15 SW 20 16.09 Fair CLR 17 -2 27% 75.57 0.0
08 09:55 SW 20 16.09 Fair CLR 17 -1 30% 75.59 0.0
08 09:35 SW 17 16.09 Fair CLR 16 -1 31% 75.59 0.0
08 09:15 SW 24 16.09 Fair CLR 14 -2 33% 75.62 0.0
08 08:55 SW 19 16.09 A Few Clouds FEW100 14 -2 33% 75.64 0.0
08 08:35 W 19 16.09 Mostly Cloudy BKN100 13 -3 33% 75.64 0.0
08 08:15 SW 15 16.09 Mostly Cloudy BKN100 BKN120 11 -3 38% 75.64 0.0
08 07:55 SW 15 16.09 Mostly Cloudy BKN100 BKN120 10 -3 40% 8 75.64 0.0
08 07:35 SW 17 16.09 Mostly Cloudy SCT100 BKN120 10 -4 37% 8 75.64 0.0
08 07:15 SW 17 16.09 Overcast OVC100 9 -4 40% 7 75.64 0.0
08 06:55 SW 15 16.09 Overcast BKN100 OVC120 9 -4 40% 7 75.64 0.0
08 06:35 SW 11 16.09 Overcast BKN085 OVC120 8 -3 46% 6 75.64 0.0
08 06:15 SW 11 16.09 Overcast SCT070 OVC090 8 -3 46% 6 75.62 0.0
08 05:55 S 9 16.09 Overcast BKN075 OVC095 7 -2 53% 5 75.64 0.0
08 05:35 S 11 16.09 Overcast BKN075 OVC100 7 -2 53% 5 75.64 0.0
08 05:15 S 13 16.09 Overcast SCT075 BKN090 OVC110 7 -2 53% 5 75.64 0.0
08 04:55 S 11 16.09 Overcast BKN095 OVC110 7 -4 46% 5 75.64 0.0
08 04:35 S 11 16.09 Partly Cloudy SCT110 6 -3 53% 4 75.64 0.0
08 04:15 S 9 16.09 Fair CLR 6 -2 57% 4 75.64 0.0
08 03:55 S 9 16.09 Fair CLR 6 -2 57% 4 75.64 0.0
08 03:35 S 9 16.09 Fair CLR 7 -4 46% 5 75.64 0.0
08 03:15 S 7 16.09 Fair CLR 6 -3 53% 5 75.67 0.0
08 02:55 S 9 16.09 Fair CLR 6 -1 61% 4 75.67 0.0
08 02:35 S 7 16.09 Fair CLR 7 -2 53% 6 75.69 0.0
08 02:15 S 7 16.09 Fair CLR 6 -1 61% 5 75.69 0.0
08 01:35 S 7 16.09 Fair CLR 7 -2 53% 6 75.72 0.0
08 01:15 SW 9 16.09 Fair CLR 7 -3 49% 5 75.72 0.0
08 00:55 Calm 16.09 Fair CLR 8 -4 43% 75.72 0.0
08 00:35 Calm 16.09 Fair CLR 8 -5 40% 75.74 0.0
08 00:15 Calm 16.09 Fair CLR 7 -5 43% 75.74 0.0
07 23:55 Calm 16.09 Fair CLR 8 -5 40% 75.74 0.0
07 23:35 Calm 16.09 Fair CLR 8 -6 37% 75.74 0.0
07 23:15 Calm 16.09 Fair CLR 8 -5 40% 75.74 0.0
07 22:55 S 6 16.09 Fair CLR 9 -5 37% 75.74 0.0
07 22:35 Calm 16.09 Fair CLR 9 -6 34% 75.74 0.0
07 22:15 Calm 16.09 Fair CLR 9 -7 32% 75.74 0.0
07 21:55 Calm 16.09 Fair CLR 10 -6 32% 75.74 0.0
07 21:35 NE 9 16.09 Fair CLR 10 -6 32% 9 75.74 0.0
07 21:15 N 7 16.09 Fair CLR 10 -5 35% 9 75.72 0.0
07 20:55 N 7 16.09 Fair CLR 11 -4 35% 75.72 0.0
07 20:35 N 7 16.09 Fair CLR 12 -4 33% 75.72 0.0
07 20:15 NW 11 16.09 Fair CLR 13 -4 31% 75.69 0.0
07 19:55 NW 11 16.09 Fair CLR 14 -4 29% 75.69 0.0
07 19:35 NW 17 16.09 Fair CLR 14 -4 29% 75.69 0.0
07 19:15 NW 17 16.09 Fair CLR 15 -4 27% 75.69 0.0
07 18:55 W 22 16.09 Fair CLR 16 -4 25% 75.69 0.0
07 18:35 NW 20 16.09 Fair CLR 16 -5 23% 75.69 0.0
07 18:15 W 19 16.09 Fair CLR 16 -6 22% 75.69 0.0
07 17:55 NW 17 G 30 16.09 Fair CLR 16 -5 23% 75.69 0.0
07 17:35 W 17 G 31 16.09 Fair CLR 17 -4 24% 75.69 0.0
07 17:15 NW 20 16.09 Fair CLR 16 -4 25% 75.69 0.0
07 16:55 NW 20 G 30 16.09 Fair CLR 16 -4 25% 75.72 0.0
07 16:35 NW 22 16.09 Fair CLR 16 -4 25% 75.72 0.0
07 16:15 NW 11 G 24 16.09 Fair CLR 16 -4 25% 75.72 0.0
07 15:15 Calm 4.83 A Few Clouds with Haze FEW090 16 -4 25% 75.74 0.0
07 14:55 W 15 16.09 Fair CLR 16 -3 27% 75.77 0.0
07 14:35 SW 11 16.09 Fair CLR 15 -5 25% 75.77 0.0
07 14:15 NW 17 16.09 Fair CLR 15 -5 25% 75.79 0.0
07 13:55 NW 15 G 24 16.09 Fair CLR 15 -4 27% 75.77 0.0
07 13:35 N 17 16.09 Fair CLR 15 -4 27% 75.79 0.0
07 13:15 NW 15 16.09 Fair CLR 14 -4 29% 75.79 0.0
07 12:55 NW 19 16.09 Fair CLR 14 -3 31% 75.82 0.0
07 12:35 Vrbl 7 G 19 16.09 Fair CLR 14 -3 31% 75.82 0.0
07 12:15 W 13 16.09 Fair CLR 14 -3 31% 75.84 0.0
07 11:55 Vrbl 9 16.09 Fair CLR 13 -4 31% 75.84 0.0
07 11:35 N 13 16.09 Fair CLR 13 -4 31% 75.87 0.0
07 11:15 Calm 16.09 Fair CLR 12 -3 35% 75.87 0.0
07 10:55 E 7 16.09 Fair CLR 12 -3 35% 75.87 0.0
07 10:35 E 11 16.09 Fair CLR 11 -3 38% 75.87 0.0
07 10:15 SE 11 16.09 Fair CLR 11 -3 38% 75.84 0.0
07 09:55 E 11 G 22 16.09 Fair CLR 10 -2 43% 9 75.84 0.0
07 09:35 Vrbl 11 16.09 Fair CLR 10 -2 43% 9 75.84 0.0
07 09:15 SE 17 16.09 Fair CLR 8 -3 46% 6 75.84 0.0
07 08:55 SE 17 16.09 Fair CLR 8 -3 46% 6 75.84 0.0
07 08:35 E 13 16.09 Partly Cloudy SCT080 6 -3 53% 4 75.84 0.0
07 08:15 E 11 16.09 Mostly Cloudy BKN085 5 -3 57% 3 75.84 0.0
07 07:55 E 15 16.09 Mostly Cloudy BKN085 4 -4 56% 1 75.84 0.0
07 07:35 E 13 16.09 Partly Cloudy SCT090 3 -4 60% 0 75.84 0.0
07 07:15 E 11 16.09 Partly Cloudy SCT085 2 -4 65% -1 75.84 0.0
07 06:55 NE 13 16.09 Mostly Cloudy BKN090 BKN110 1 -4 70% -2 75.82 0.0
07 06:35 E 11 16.09 Mostly Cloudy FEW065 BKN090 1 -4 70% -2 75.82 0.0
07 06:15 NE 17 16.09 Overcast FEW070 OVC090 1 -4 70% -3 75.82 0.0
07 05:55 NE 9 16.09 Mostly Cloudy FEW075 BKN090 1 -4 70% -2 75.82 0.0
07 05:35 SE 13 16.09 Mostly Cloudy FEW048 BKN075 BKN085 2 -4 65% -1 75.82 0.0
07 05:15 NE 13 16.09 Overcast FEW060 OVC075 2 -4 65% -1 75.84 0.0
07 04:55 E 19 16.09 Overcast FEW047 SCT060 OVC075 3 -4 60% -1 75.84 0.0
07 04:35 NE 19 16.09 Overcast OVC070 3 -4 60% -1 75.9 0.0
07 04:15 E 15 16.09 Overcast SCT060 OVC075 3 -4 60% -0 75.87 0.0
07 03:55 NE 19 16.09 Overcast SCT065 OVC075 3 -4 60% -1 75.87 0.0
07 03:35 E 13 16.09 Overcast SCT065 OVC075 3 -4 60% 0 75.9 0.0
07 03:15 E 13 16.09 Overcast OVC075 3 -4 60% 0 75.9 0.0
07 02:55 E 11 16.09 Overcast BKN075 OVC090 2 -4 65% -1 75.9 0.0
07 02:35 E 13 16.09 Overcast OVC075 2 -4 65% -1 75.9 0.0
07 02:15 E 13 16.09 Overcast BKN075 BKN090 OVC110 2 -5 60% -1 75.9 0.0
07 01:55 E 13 16.09 Overcast BKN075 BKN085 OVC110 3 -5 56% 0 75.9 0.0
07 01:35 E 13 16.09 Overcast OVC075 4 -5 52% 1 75.92 0.0
07 01:15 E 9 16.09 Overcast BKN075 OVC100 4 -4 56% 2 75.95 0.0
07 00:35 E 13 16.09 Overcast SCT065 OVC075 4 -5 52% 1 76 0.0
07 00:15 NE 13 16.09 Overcast OVC075 4 -5 52% 1 76.02 0.0
06 23:55 E 9 16.09 Overcast OVC075 4 -5 52% 2 76.02 0.0
06 23:35 E 9 16.09 Overcast BKN075 OVC090 3 -5 56% 1 76.02 0.0
06 23:15 E 9 16.09 Overcast FEW080 OVC090 3 -6 52% 1 76.02 0.0
06 22:55 NE 7 16.09 Mostly Cloudy FEW080 BKN090 4 -6 48% 2 76.02 0.0
06 22:35 NE 9 16.09 Mostly Cloudy BKN075 BKN090 4 -6 48% 2 76.05 0.0
06 22:15 NE 9 16.09 Mostly Cloudy SCT080 BKN090 5 -6 45% 3 76.05 0.0
06 21:55 NE 7 16.09 Partly Cloudy FEW060 FEW075 SCT090 5 -6 45% 4 76.05 0.0
06 21:35 NE 7 16.09 Overcast SCT065 BKN075 OVC095 6 -6 42% 5 76.02 0.0
06 21:15 NE 9 16.09 Overcast FEW065 BKN080 OVC095 6 -6 42% 4 76.02 0.0
06 20:55 N 9 16.09 Overcast OVC075 6 -5 46% 4 76.02 0.0
06 20:35 N 13 16.09 Overcast BKN075 OVC085 7 -5 43% 5 76.02 0.0
06 20:15 NW 11 16.09 Overcast FEW070 OVC080 9 -4 40% 8 76.02 0.0
06 19:55 NW 17 16.09 Overcast FEW065 OVC080 10 -6 32% 8 76.02 0.0
06 19:35 W 17 16.09 Overcast OVC080 10 -7 30% 8 76.02 0.0
06 19:15 W 20 16.09 Mostly Cloudy BKN080 BKN090 10 -7 30% 8 76.02 0.0
06 18:55 W 19 G 28 16.09 Mostly Cloudy BKN080 BKN090 11 -6 30% 76.05 0.0
06 18:35 NW 24 16.09 Overcast OVC080 11 -6 30% 76.05 0.0
06 18:15 NW 26 16.09 Mostly Cloudy BKN075 12 -6 28% 76.05 0.0
06 17:55 NW 20 G 31 16.09 Mostly Cloudy BKN075 11 -5 32% 76.07 0.0
06 17:35 W 22 16.09 Overcast OVC075 11 -6 30% 76.07 0.0
06 17:15 NW 24 G 35 16.09 Overcast BKN075 OVC085 11 -5 32% 76.1 0.0
06 16:55 W 22 16.09 Mostly Cloudy BKN075 BKN085 10 -5 35% 7 76.1 0.0
06 16:35 W 26 G 37 16.09 Mostly Cloudy BKN070 BKN080 11 -5 32% 76.12 0.0
06 16:15 W 26 16.09 Mostly Cloudy BKN070 11 -5 32% 76.12 0.0
06 15:55 NW 20 G 37 16.09 Mostly Cloudy BKN070 11 -5 32% 76.15 0.0
06 15:35 W 31 G 43 16.09 Mostly Cloudy BKN070 12 -5 30% 76.17 0.0
06 15:15 W 28 G 39 16.09 Mostly Cloudy BKN070 BKN080 11 -5 32% 76.17 0.0
06 14:55 W 24 G 41 16.09 Partly Cloudy SCT070 SCT075 11 -5 32% 76.2 0.0
06 14:35 W 15 G 35 16.09 Mostly Cloudy BKN070 10 -4 37% 8 76.2 0.0
06 14:15 NW 28 G 37 16.09 Overcast OVC070 10 -5 35% 7 76.23 0.0
06 13:55 NW 19 G 37 16.09 Mostly Cloudy BKN060 BKN075 9 -4 40% 7 76.23 0.0
06 13:35 NW 17 G 35 16.09 A Few Clouds FEW060 9 -5 37% 7 76.25 0.0
06 13:15 NW 24 G 39 16.09 Partly Cloudy SCT055 9 -4 40% 6 76.25 0.0
06 12:55 NW 26 G 37 16.09 Partly Cloudy SCT060 9 -5 37% 6 76.28 0.0
06 12:35 NW 30 G 46 16.09 Mostly Cloudy BKN055 9 -5 37% 6 76.28 0.0
06 12:15 W 31 G 46 16.09 Mostly Cloudy BKN055 9 -4 40% 5 76.3 0.0
06 11:55 NW 22 G 41 16.09 Mostly Cloudy SCT050 BKN065 8 -4 43% 5 76.3 0.0
06 11:35 W 24 G 35 16.09 Partly Cloudy SCT050 SCT055 8 -5 40% 5 76.33 0.0
06 11:15 W 28 16.09 Partly Cloudy SCT050 7 -5 43% 3 76.33 0.0
06 10:55 W 24 G 35 16.09 Partly Cloudy SCT048 7 -4 46% 4 76.33 0.0
06 10:35 W 17 G 31 16.09 Fair CLR 7 -4 46% 4 76.35 0.0
06 10:15 NW 22 16.09 Fair CLR 6 -4 49% 2 76.35 0.0
06 09:55 NW 22 16.09 A Few Clouds FEW060 6 -4 49% 2 76.35 0.0
06 09:35 NW 17 16.09 Mostly Cloudy BKN060 5 -4 53% 2 76.35 0.0
06 09:15 NW 19 16.09 Overcast OVC065 4 -4 56% 0 76.35 0.0
06 08:55 NW 17 16.09 Overcast OVC065 4 -4 56% 1 76.35 0.0
06 08:35 NW 17 16.09 Overcast OVC065 3 -3 65% -1 76.35 0.0
06 08:15 NW 13 16.09 Overcast OVC065 3 -1 75% 0 76.33 0.0
06 07:55 NW 9 16.09 Overcast OVC065 1 -1 87% -2 76.33 0.0
06 07:35 NW 9 16.09 Overcast OVC065 1 -1 87% -2 76.3 0.0
06 07:15 NW 9 16.09 Overcast OVC065 0 -2 87% -3 76.3 0.0
06 06:55 NW 9 16.09 Overcast OVC065 -1 -3 86% -4 76.28 0.0
Date Time (cdt) Wind (kph) Vis. (km) Weather Sky Cond. Air Dwpt Max. Min. Relative Humidity Wind Chill (°C) Heat Index (°C) altimeter (cm) sea level (mb) 1 hr 3 hr 6 hr
6 hour
Temperature (ºC) Pressure Precipitation (cm)